Time;durP1;ratioP1;P1;durP2;ratioP2;P2;SDS_P1;SDS_P2;PMS_P1;PMS_P2;Temp;Humidity;BMP_temperature;BMP_pressure;BME280_temperature;BME280_humidity;BME280_pressure;Samples;Min_cycle;Max_cycle;Signal;HPM_P1;HPM_P2
2024/04/09 00:00:24;;;;;;;1.40;1.00;;;;;;;20.19;89.15;99237.19;4394611;32;20172;-87
2024/04/09 00:02:49;;;;;;;0.65;0.62;;;;;;;20.22;92.29;99243.94;4407254;32;20253;-87
2024/04/09 00:05:16;;;;;;;2.42;1.35;;;;;;;20.31;91.46;99261.31;4421073;32;20210;-87
2024/04/09 00:07:43;;;;;;;2.15;1.20;;;;;;;20.31;90.46;99259.44;4425378;32;20176;-87
2024/04/09 00:10:09;;;;;;;2.15;1.33;;;;;;;20.33;91.08;99264.59;4425492;32;20180;-87
2024/04/09 00:12:36;;;;;;;4.30;1.05;;;;;;;20.32;91.65;99268.31;4425365;32;20532;-87
2024/04/09 00:15:22;;;;;;;2.33;1.42;;;;;;;20.05;91.80;99228.66;4411621;32;20631;-88
2024/04/09 00:17:55;;;;;;;4.28;1.10;;;;;;;20.29;92.00;99268.81;4417669;32;20238;-87
2024/04/09 00:20:33;;;;;;;1.70;1.20;;;;;;;20.28;92.29;99270.69;4407883;32;20561;-88
2024/04/09 00:23:03;;;;;;;5.25;1.30;;;;;;;20.24;94.86;99260.69;4409054;32;20185;-87
2024/04/09 00:25:32;;;;;;;2.65;1.40;;;;;;;20.17;93.79;99251.97;4425987;32;20188;-87
2024/04/09 00:28:27;;;;;;;4.72;1.40;;;;;;;19.83;94.35;99192.06;4424099;32;20157;-88
2024/04/09 00:30:54;;;;;;;1.25;1.15;;;;;;;20.12;95.90;99233.91;4418555;32;20215;-87
2024/04/09 00:33:21;;;;;;;2.87;1.02;;;;;;;20.08;97.55;99240.00;4418173;32;20173;-87
2024/04/09 00:35:48;;;;;;;6.12;1.60;;;;;;;19.99;99.02;99234.25;4424461;32;20195;-87
2024/04/09 00:38:19;;;;;;;3.87;1.40;;;;;;;19.92;100.00;99242.50;4421730;32;20157;-87
2024/04/09 00:40:45;;;;;;;2.97;1.27;;;;;;;19.89;99.11;99239.53;4416854;32;20195;-87
2024/04/09 00:43:12;;;;;;;1.73;1.40;;;;;;;19.84;99.11;99234.91;4410475;32;20223;-87
2024/04/09 00:45:40;;;;;;;2.37;1.40;;;;;;;19.84;99.88;99242.16;4406949;32;20184;-87
2024/04/09 00:48:07;;;;;;;2.37;1.42;;;;;;;19.81;100.00;99235.38;4425489;32;20220;-88
2024/04/09 00:50:33;;;;;;;6.20;1.50;;;;;;;19.62;100.00;99207.97;4417762;32;20187;-87
2024/04/09 00:53:00;;;;;;;1.67;1.30;;;;;;;19.70;100.00;99230.13;4422788;32;20165;-87
2024/04/09 00:55:26;;;;;;;1.77;1.37;;;;;;;19.69;100.00;99221.25;4423759;32;20202;-87
2024/04/09 00:57:53;;;;;;;1.48;1.37;;;;;;;19.63;100.00;99219.53;4416256;32;20251;-88
2024/04/09 01:00:36;;;;;;;4.37;2.05;;;;;;;19.57;100.00;99205.19;4410285;32;20239;-87
2024/04/09 01:03:09;;;;;;;0.95;0.93;;;;;;;19.52;100.00;99199.75;4417513;32;20188;-88
2024/04/09 01:05:40;;;;;;;2.83;1.33;;;;;;;19.61;100.00;99214.41;4411633;32;20161;-87
2024/04/09 01:08:12;;;;;;;2.85;1.48;;;;;;;19.58;100.00;99204.12;4423537;32;20224;-87
2024/04/09 01:10:40;;;;;;;2.42;1.50;;;;;;;19.53;100.00;99197.88;4419097;32;20195;-87
2024/04/09 01:13:15;;;;;;;2.87;1.75;;;;;;;19.51;100.00;99213.44;4426675;32;20241;-87
2024/04/09 01:15:50;;;;;;;2.58;1.50;;;;;;;19.39;100.00;99208.13;4413175;32;20249;-87
2024/04/09 01:18:21;;;;;;;4.95;1.42;;;;;;;19.42;100.00;99206.84;4420465;32;20168;-88
2024/04/09 01:20:48;;;;;;;3.53;1.83;;;;;;;19.42;100.00;99201.47;4419916;32;20195;-87
2024/04/09 01:23:15;;;;;;;1.58;1.40;;;;;;;19.41;100.00;99210.59;4425066;32;20172;-87
2024/04/09 01:29:53;;;;;;;2.83;1.75;;;;;;;19.23;100.00;99222.41;4422107;32;20161;-87
2024/04/09 01:32:21;;;;;;;3.25;1.73;;;;;;;19.20;100.00;99223.75;4404073;32;20200;-87
2024/04/09 01:35:01;;;;;;;4.15;1.73;;;;;;;19.15;100.00;99233.59;4420514;32;20169;-87
2024/04/09 01:37:53;;;;;;;3.20;2.00;;;;;;;18.98;100.00;99212.09;4425198;32;20164;-87
2024/04/09 01:40:26;;;;;;;4.32;1.60;;;;;;;18.92;100.00;99202.31;4424426;32;20220;-87
2024/04/09 01:42:51;;;;;;;3.65;1.52;;;;;;;18.97;100.00;99220.41;4425455;32;21047;-87
2024/04/09 01:45:22;;;;;;;1.45;1.25;;;;;;;18.85;100.00;99213.25;4411927;32;20173;-87
2024/04/09 01:47:48;;;;;;;3.08;1.30;;;;;;;18.70;100.00;99204.91;4426886;32;20206;-87
2024/04/09 01:50:14;;;;;;;2.10;1.20;;;;;;;18.70;100.00;99221.03;4412312;32;20597;-88
2024/04/09 01:52:42;;;;;;;3.50;1.30;;;;;;;18.73;100.00;99223.25;4424910;32;20168;-89
2024/04/09 01:55:08;;;;;;;1.83;1.67;;;;;;;18.74;100.00;99224.84;4419681;32;20176;-87
2024/04/09 01:57:35;;;;;;;4.72;1.40;;;;;;;18.67;100.00;99232.25;4425091;32;20194;-87
2024/04/09 02:00:11;;;;;;;1.77;1.40;;;;;;;18.63;100.00;99230.31;4408250;32;20584;-88
2024/04/09 02:02:38;;;;;;;8.10;1.40;;;;;;;18.61;100.00;99229.72;4425253;32;20227;-88
2024/04/09 02:05:07;;;;;;;0.80;0.77;;;;;;;18.46;100.00;99219.50;4427001;32;20222;-87
2024/04/09 02:07:33;;;;;;;2.42;1.20;;;;;;;18.54;100.00;99243.25;4425644;32;20169;-87
2024/04/09 02:10:00;;;;;;;2.55;1.40;;;;;;;18.50;100.00;99242.12;4423053;32;20176;-87
2024/04/09 02:12:25;;;;;;;1.87;1.20;;;;;;;18.31;100.00;99241.53;4410091;32;20611;-88
2024/04/09 02:14:53;;;;;;;2.97;1.10;;;;;;;18.34;100.00;99249.09;4412534;32;20210;-87
2024/04/09 02:17:18;;;;;;;1.58;1.17;;;;;;;18.34;100.00;99254.44;4424520;32;20176;-89
2024/04/09 02:19:44;;;;;;;5.45;1.60;;;;;;;18.32;100.00;99251.22;4409460;32;20156;-87
2024/04/09 02:22:10;;;;;;;3.03;1.12;;;;;;;18.19;100.00;99242.59;4420465;32;20196;-87
2024/04/09 02:24:36;;;;;;;2.30;1.52;;;;;;;18.22;100.00;99259.06;4416602;32;20253;-87
2024/04/09 02:27:03;;;;;;;2.03;1.45;;;;;;;18.20;100.00;99245.03;4425589;32;20187;-87
2024/04/09 02:29:30;;;;;;;3.08;1.48;;;;;;;18.10;100.00;99228.75;4404506;32;20169;-87
2024/04/09 02:31:58;;;;;;;2.28;1.27;;;;;;;17.75;100.00;99185.09;4413285;32;20228;-87
2024/04/09 02:34:24;;;;;;;2.35;1.73;;;;;;;18.12;100.00;99250.00;4426077;32;20152;-87
2024/04/09 02:36:50;;;;;;;2.55;1.35;;;;;;;18.10;100.00;99248.34;4424933;32;20276;-87
2024/04/09 02:39:16;;;;;;;2.58;1.92;;;;;;;18.06;100.00;99249.06;4427590;32;20211;-87
2024/04/09 02:41:42;;;;;;;3.20;1.50;;;;;;;18.04;100.00;99252.00;4424237;32;20290;-87
2024/04/09 02:44:08;;;;;;;3.08;1.62;;;;;;;18.02;100.00;99243.34;4424545;32;20153;-87
2024/04/09 02:46:34;;;;;;;2.33;1.35;;;;;;;18.00;100.00;99248.13;4423583;32;20227;-87
2024/04/09 02:49:00;;;;;;;3.12;1.40;;;;;;;18.00;100.00;99258.06;4426739;32;20169;-87
2024/04/09 02:51:26;;;;;;;4.78;1.90;;;;;;;17.96;100.00;99270.34;4421960;32;20199;-87
2024/04/09 02:53:52;;;;;;;2.40;1.60;;;;;;;17.90;100.00;99273.97;4411160;32;20182;-87
2024/04/09 02:56:18;;;;;;;2.80;1.80;;;;;;;17.91;100.00;99287.13;4413002;32;20184;-88
2024/04/09 02:58:44;;;;;;;3.72;2.20;;;;;;;17.94;100.00;99288.53;4424791;32;20182;-87
2024/04/09 03:01:11;;;;;;;4.55;1.92;;;;;;;17.63;100.00;99244.94;4424870;32;20153;-87
2024/04/09 03:03:37;;;;;;;4.72;2.10;;;;;;;17.92;100.00;99296.81;4424434;32;20574;-87
2024/04/09 03:06:08;;;;;;;4.47;1.92;;;;;;;17.86;100.00;99288.88;4426403;32;20191;-87
2024/04/09 03:08:34;;;;;;;2.12;1.62;;;;;;;17.63;100.00;99257.56;4422554;32;20218;-88
2024/04/09 03:11:00;;;;;;;4.65;3.03;;;;;;;17.71;100.00;99270.59;4411482;32;20279;-87
2024/04/09 03:13:26;;;;;;;7.72;3.05;;;;;;;17.70;100.00;99285.84;4428624;32;20179;-87
2024/04/09 03:15:52;;;;;;;3.80;2.60;;;;;;;17.76;100.00;99302.91;4424041;32;20161;-87
2024/04/09 03:18:18;;;;;;;4.35;2.33;;;;;;;17.74;100.00;99312.22;4425295;32;20198;-87
2024/04/09 03:20:44;;;;;;;3.95;2.25;;;;;;;17.67;100.00;99312.34;4410749;32;20267;-88
2024/04/09 03:23:11;;;;;;;3.40;2.17;;;;;;;17.63;100.00;99305.81;4408008;32;20192;-87
2024/04/09 03:25:37;;;;;;;4.35;2.35;;;;;;;17.62;100.00;99314.91;4391300;32;20225;-87
2024/04/09 03:28:03;;;;;;;3.50;2.20;;;;;;;17.56;100.00;99308.56;4385937;32;20287;-87
2024/04/09 03:30:29;;;;;;;3.08;1.75;;;;;;;17.46;100.00;99300.31;4393023;32;20170;-87
2024/04/09 03:32:55;;;;;;;4.03;1.67;;;;;;;17.49;100.00;99312.44;4391354;32;20236;-87
2024/04/09 03:35:21;;;;;;;3.53;1.80;;;;;;;17.40;100.00;99301.22;4387747;32;20177;-87
2024/04/09 03:37:49;;;;;;;2.00;1.73;;;;;;;17.47;100.00;99307.31;4390153;32;20230;-87
2024/04/09 03:40:16;;;;;;;2.67;1.45;;;;;;;17.40;100.00;99301.22;4385106;32;20288;-87
2024/04/09 03:42:42;;;;;;;4.85;1.90;;;;;;;17.39;100.00;99310.31;4383288;32;20181;-87
2024/04/09 03:45:10;;;;;;;3.05;1.60;;;;;;;17.38;100.00;99302.50;4380888;32;20277;-87
2024/04/09 03:47:36;;;;;;;7.28;1.70;;;;;;;17.25;100.00;99296.31;4377571;32;20227;-87
2024/04/09 03:50:02;;;;;;;4.25;1.65;;;;;;;17.30;100.00;99311.69;4390597;32;20211;-85
2024/04/09 03:52:28;;;;;;;2.67;1.73;;;;;;;17.24;100.00;99307.25;4392649;32;20566;-85
2024/04/09 03:54:54;;;;;;;2.60;1.20;;;;;;;17.23;100.00;99321.72;4391994;32;20308;-85
2024/04/09 03:57:20;;;;;;;2.90;1.58;;;;;;;17.21;100.00;99323.81;4412164;32;20175;-85
2024/04/09 03:59:46;;;;;;;5.68;2.08;;;;;;;17.20;100.00;99338.28;4408546;32;20269;-85
2024/04/09 04:02:12;;;;;;;1.67;1.00;;;;;;;17.15;100.00;99348.88;4422203;32;20180;-85
2024/04/09 04:04:38;;;;;;;4.28;1.62;;;;;;;17.11;100.00;99343.13;4425916;32;20160;-85
2024/04/09 04:07:04;;;;;;;2.25;1.50;;;;;;;17.08;100.00;99356.97;4422648;32;20634;-85
2024/04/09 04:09:31;;;;;;;4.40;1.80;;;;;;;17.03;100.00;99354.16;4421614;32;20137;-85
2024/04/09 04:11:57;;;;;;;3.17;1.92;;;;;;;16.98;100.00;99361.28;4422529;32;20149;-85
2024/04/09 04:14:23;;;;;;;2.67;1.58;;;;;;;16.91;100.00;99370.22;4417556;32;20236;-85
2024/04/09 04:16:49;;;;;;;1.80;1.45;;;;;;;16.88;100.00;99375.19;4424209;32;20175;-84
2024/04/09 04:19:16;;;;;;;2.53;1.50;;;;;;;16.80;100.00;99372.84;4422042;32;20169;-86
2024/04/09 04:21:42;;;;;;;3.60;1.50;;;;;;;16.79;100.00;99368.53;4413381;32;20239;-85
2024/04/09 04:24:08;;;;;;;3.65;1.50;;;;;;;16.80;100.00;99359.47;4410755;32;20177;-85
2024/04/09 04:26:34;;;;;;;3.42;1.55;;;;;;;16.80;100.00;99346.84;4423923;32;20215;-85
2024/04/09 04:29:00;;;;;;;1.92;1.50;;;;;;;16.81;100.00;99342.31;4423698;32;20161;-85
2024/04/09 04:31:27;;;;;;;2.92;1.30;;;;;;;16.83;100.00;99340.25;4424557;32;20588;-85
2024/04/09 04:33:55;;;;;;;2.70;1.55;;;;;;;16.83;100.00;99341.06;4424359;32;20199;-85
2024/04/09 04:36:21;;;;;;;3.42;1.90;;;;;;;16.84;100.00;99344.56;4423710;32;20232;-85
2024/04/09 04:38:48;;;;;;;2.80;1.50;;;;;;;16.86;100.00;99354.00;4409760;32;20180;-85
2024/04/09 04:41:15;;;;;;;3.15;1.33;;;;;;;16.63;100.00;99320.94;4421381;32;20168;-85
2024/04/09 04:43:41;;;;;;;2.22;1.45;;;;;;;16.86;100.00;99347.84;4418449;32;20246;-85
2024/04/09 04:46:07;;;;;;;2.47;1.50;;;;;;;16.85;100.00;99365.78;4426203;32;20277;-85
2024/04/09 04:48:34;;;;;;;4.55;1.52;;;;;;;16.84;100.00;99388.25;4426063;32;20211;-85
2024/04/09 04:51:00;;;;;;;1.52;1.37;;;;;;;16.84;100.00;99396.28;4426605;32;20226;-84
2024/04/09 04:53:26;;;;;;;2.80;1.70;;;;;;;16.84;100.00;99398.13;4426415;32;20169;-85
2024/04/09 04:55:52;;;;;;;5.07;1.52;;;;;;;16.80;100.00;99411.16;4425107;32;20164;-85
2024/04/09 04:58:19;;;;;;;1.48;1.37;;;;;;;16.74;100.00;99416.59;4427426;32;20207;-85
2024/04/09 05:00:45;;;;;;;3.50;1.33;;;;;;;16.75;100.00;99421.72;4423275;32;20152;-85
2024/04/09 05:03:11;;;;;;;3.10;1.52;;;;;;;16.72;100.00;99414.16;4422488;32;20207;-85
2024/04/09 05:05:38;;;;;;;4.55;1.40;;;;;;;16.69;100.00;99421.81;4424248;32;20236;-85
2024/04/09 05:08:05;;;;;;;4.00;1.60;;;;;;;16.70;100.00;99421.59;4418729;32;20499;-85
2024/04/09 05:10:31;;;;;;;5.65;1.40;;;;;;;16.71;100.00;99433.12;4427390;32;20149;-85
2024/04/09 05:12:57;;;;;;;5.28;1.62;;;;;;;16.72;100.00;99432.91;4425360;32;20238;-86
2024/04/09 05:15:23;;;;;;;1.30;1.20;;;;;;;16.73;100.00;99442.59;4425343;32;20165;-85
2024/04/09 05:17:50;;;;;;;2.90;1.30;;;;;;;16.76;100.00;99443.97;4425547;32;20191;-85
2024/04/09 05:20:18;;;;;;;2.12;1.40;;;;;;;16.81;100.00;99452.97;4413354;32;20219;-86
2024/04/09 05:22:45;;;;;;;1.77;1.37;;;;;;;16.81;100.00;99458.31;4415685;32;20726;-85
2024/04/09 05:25:12;;;;;;;2.35;1.40;;;;;;;16.86;100.00;99463.03;4412488;32;20168;-85
2024/04/09 05:27:39;;;;;;;3.55;1.17;;;;;;;16.87;100.00;99468.13;4425121;32;20192;-85
2024/04/09 05:30:06;;;;;;;4.53;1.65;;;;;;;16.92;100.00;99465.63;4422255;32;20280;-85
2024/04/09 05:32:35;;;;;;;1.87;1.20;;;;;;;16.97;100.00;99472.16;4425864;32;20201;-85
2024/04/09 05:35:01;;;;;;;1.98;1.55;;;;;;;17.03;100.00;99482.78;4424465;32;20185;-86
2024/04/09 05:37:27;;;;;;;3.28;1.25;;;;;;;16.98;100.00;99466.59;4425015;32;20184;-85
2024/04/09 05:39:54;;;;;;;5.22;1.70;;;;;;;17.15;100.00;99477.50;4423072;32;20169;-86
2024/04/09 05:42:19;;;;;;;1.45;1.20;;;;;;;17.18;100.00;99477.88;4411138;32;20288;-84
2024/04/09 05:44:47;;;;;;;2.17;1.30;;;;;;;17.21;100.00;99473.91;4411336;32;20172;-85
2024/04/09 05:47:13;;;;;;;3.67;1.58;;;;;;;17.28;100.00;99474.66;4427242;32;20192;-86
2024/04/09 05:49:39;;;;;;;1.77;1.48;;;;;;;17.34;100.00;99476.41;4425430;32;21172;-87
2024/04/09 05:52:06;;;;;;;4.07;1.55;;;;;;;17.41;100.00;99484.38;4424380;32;20156;-87
2024/04/09 05:54:38;;;;;;;2.53;1.50;;;;;;;17.49;100.00;99494.78;4425152;32;21771;-86
2024/04/09 05:57:07;;;;;;;4.55;1.20;;;;;;;17.54;100.00;99505.63;4425976;32;20592;-87
2024/04/09 05:59:34;;;;;;;5.40;1.30;;;;;;;17.53;100.00;99495.94;4420327;32;20184;-86
2024/04/09 06:02:00;;;;;;;0.90;0.90;;;;;;;17.64;100.00;99514.78;4424266;32;20276;-86
2024/04/09 06:04:26;;;;;;;2.47;1.10;;;;;;;17.70;100.00;99505.81;4423155;32;20153;-86
2024/04/09 06:06:52;;;;;;;1.83;1.10;;;;;;;17.76;100.00;99514.00;4419319;32;20216;-84
2024/04/09 06:09:19;;;;;;;1.42;1.02;;;;;;;17.81;100.00;99523.00;4422389;32;20512;-85
2024/04/09 06:11:45;;;;;;;2.05;1.42;;;;;;;17.86;100.00;99512.41;4424864;32;20196;-85
2024/04/09 06:14:11;;;;;;;3.72;1.20;;;;;;;17.92;100.00;99513.34;4410904;32;20204;-85
2024/04/09 06:16:37;;;;;;;2.65;1.30;;;;;;;17.97;100.00;99522.34;4426852;32;20462;-85
2024/04/09 06:19:03;;;;;;;1.75;1.20;;;;;;;18.04;100.00;99512.34;4424866;32;20165;-86
2024/04/09 06:21:29;;;;;;;3.37;1.70;;;;;;;18.12;100.00;99520.03;4425846;32;20161;-85
2024/04/09 06:23:54;;;;;;;1.50;0.90;;;;;;;18.20;100.00;99520.72;4418504;32;20223;-86
2024/04/09 06:26:20;;;;;;;2.67;1.10;;;;;;;18.26;100.00;99523.31;4427847;32;20173;-84
2024/04/09 06:28:46;;;;;;;1.35;1.20;;;;;;;18.34;100.00;99532.88;4424573;32;20186;-85
2024/04/09 06:31:13;;;;;;;2.70;1.00;;;;;;;18.41;100.00;99539.78;4410561;32;20164;-85
2024/04/09 06:33:40;;;;;;;1.02;1.02;;;;;;;18.48;100.00;99542.34;4409432;32;20229;-85
2024/04/09 06:36:06;;;;;;;1.08;0.85;;;;;;;18.55;100.00;99551.09;4421317;32;20198;-85
2024/04/09 06:38:32;;;;;;;1.00;0.57;;;;;;;18.63;100.00;99571.47;4426958;32;20206;-85
2024/04/09 06:40:58;;;;;;;2.60;1.08;;;;;;;18.66;100.00;99561.09;4424001;32;20518;-85
2024/04/09 06:43:26;;;;;;;4.22;0.77;;;;;;;18.72;100.00;99562.00;4422944;32;20152;-84
2024/04/09 06:45:52;;;;;;;0.82;0.80;;;;;;;18.77;100.00;99570.19;4411281;32;20225;-84
2024/04/09 06:48:18;;;;;;;1.25;0.90;;;;;;;18.81;100.00;99574.03;4425755;32;20196;-85
2024/04/09 06:50:44;;;;;;;1.37;0.50;;;;;;;18.83;100.00;99596.94;4423309;32;20153;-85
2024/04/09 06:53:10;;;;;;;0.60;0.60;;;;;;;18.85;100.00;99586.78;4421650;32;20148;-85
2024/04/09 06:55:38;;;;;;;2.17;0.60;;;;;;;18.76;100.00;99581.97;4425004;32;20615;-86
2024/04/09 06:58:05;;;;;;;0.50;0.50;;;;;;;18.87;100.00;99599.97;4423679;32;20169;-84
2024/04/09 07:00:33;;;;;;;1.23;0.70;;;;;;;18.86;100.00;99617.16;4423484;32;20168;-85
2024/04/09 07:03:04;;;;;;;0.30;0.30;;;;;;;18.89;100.00;99603.22;4423133;32;20161;-85
2024/04/09 07:05:30;;;;;;;0.45;0.40;;;;;;;18.89;100.00;99608.59;4424025;32;20196;-85
2024/04/09 07:07:56;;;;;;;0.47;0.32;;;;;;;18.86;100.00;99609.91;4423748;32;20235;-87
2024/04/09 07:10:22;;;;;;;2.58;0.60;;;;;;;18.88;100.00;99607.78;4424332;32;20160;-85
2024/04/09 07:12:48;;;;;;;0.40;0.40;;;;;;;18.89;100.00;99622.03;4424051;32;20483;-85
2024/04/09 07:15:15;;;;;;;1.08;0.57;;;;;;;18.83;100.00;99639.94;4424173;32;20489;-86
2024/04/09 07:17:40;;;;;;;1.10;0.43;;;;;;;18.73;100.00;99639.72;4426636;32;20165;-85
2024/04/09 07:20:08;;;;;;;1.23;0.60;;;;;;;18.78;100.00;99645.19;4424435;32;20543;-86
2024/04/09 07:22:34;;;;;;;0.93;0.60;;;;;;;18.80;100.00;99669.16;4425446;32;20211;-85
2024/04/09 07:25:01;;;;;;;4.82;0.62;;;;;;;18.78;100.00;99677.44;4412187;32;20243;-86
2024/04/09 07:27:26;;;;;;;0.22;0.22;;;;;;;18.75;100.00;99687.81;4424442;32;20489;-85
2024/04/09 07:29:52;;;;;;;0.52;0.40;;;;;;;18.75;100.00;99685.12;4421136;32;20255;-85
2024/04/09 07:32:18;;;;;;;0.88;0.50;;;;;;;18.69;100.00;99686.06;4421078;32;20193;-87
2024/04/09 07:34:46;;;;;;;1.50;0.55;;;;;;;18.68;100.00;99690.63;4422891;32;20624;-85
2024/04/09 07:37:11;;;;;;;0.55;0.55;;;;;;;18.69;100.00;99688.75;4420690;32;20190;-85
2024/04/09 07:39:38;;;;;;;0.47;0.40;;;;;;;18.65;100.00;99701.00;4425587;32;20157;-85
2024/04/09 07:42:04;;;;;;;0.65;0.45;;;;;;;18.46;100.00;99690.28;4427280;32;20442;-85
2024/04/09 07:44:30;;;;;;;0.52;0.52;;;;;;;18.52;100.00;99710.06;4411204;32;20548;-85
2024/04/09 07:46:56;;;;;;;0.57;0.57;;;;;;;18.55;100.00;99708.78;4408634;32;20303;-85
2024/04/09 07:49:22;;;;;;;0.52;0.40;;;;;;;18.46;100.00;99709.09;4421899;32;20233;-86
2024/04/09 07:51:48;;;;;;;0.98;0.40;;;;;;;18.56;100.00;99713.13;4425172;32;20161;-85
2024/04/09 07:54:13;;;;;;;0.40;0.40;;;;;;;18.54;100.00;99720.56;4423808;32;20164;-86
2024/04/09 07:56:40;;;;;;;0.50;0.50;;;;;;;18.60;100.00;99725.06;4421668;32;20169;-85
2024/04/09 07:59:06;;;;;;;0.45;0.45;;;;;;;18.62;100.00;99734.53;4423570;32;20265;-85
2024/04/09 08:01:32;;;;;;;0.45;0.45;;;;;;;18.59;100.00;99744.94;4424666;32;20183;-85
2024/04/09 08:03:58;;;;;;;0.60;0.55;;;;;;;18.56;100.00;99751.56;4412042;32;20176;-86
2024/04/09 08:06:27;;;;;;;0.50;0.50;;;;;;;18.44;100.00;99758.75;4426325;32;20225;-86
2024/04/09 08:08:53;;;;;;;0.43;0.40;;;;;;;18.28;100.00;99764.72;4410222;32;20623;-85
2024/04/09 08:11:19;;;;;;;2.37;0.32;;;;;;;18.19;100.00;99766.91;4423846;32;20249;-86
2024/04/09 08:13:46;;;;;;;0.37;0.37;;;;;;;18.11;100.00;99769.91;4425394;32;20520;-86
2024/04/09 08:16:12;;;;;;;0.20;0.20;;;;;;;17.92;100.00;99784.38;4418046;32;20181;-84
2024/04/09 08:18:38;;;;;;;0.22;0.22;;;;;;;17.85;100.00;99797.03;4422261;32;20168;-85
2024/04/09 08:21:05;;;;;;;1.27;0.37;;;;;;;17.86;100.00;99807.56;4427979;32;20192;-86
2024/04/09 08:23:31;;;;;;;1.10;0.47;;;;;;;17.88;100.00;99813.53;4425671;32;20165;-85
2024/04/09 08:25:57;;;;;;;0.40;0.40;;;;;;;17.80;100.00;99821.88;4420518;32;20187;-86
2024/04/09 08:28:23;;;;;;;0.15;0.15;;;;;;;17.80;100.00;99815.69;4425144;32;20188;-85
2024/04/09 08:30:50;;;;;;;0.90;0.45;;;;;;;17.79;100.00;99820.22;4426087;32;20186;-85
2024/04/09 08:33:17;;;;;;;0.30;0.30;;;;;;;17.79;100.00;99839.00;4427770;32;20161;-86
2024/04/09 08:35:45;;;;;;;0.65;0.40;;;;;;;17.75;100.00;99834.31;4425653;32;20176;-85
2024/04/09 08:38:11;;;;;;;0.32;0.32;;;;;;;17.77;100.00;99848.34;4427932;32;20145;-85
2024/04/09 08:40:37;;;;;;;0.85;0.40;;;;;;;17.78;100.00;99853.44;4428053;32;20164;-85
2024/04/09 08:43:03;;;;;;;0.30;0.30;;;;;;;17.75;100.00;99853.91;4413800;32;20250;-85
2024/04/09 08:45:30;;;;;;;0.50;0.50;;;;;;;17.68;100.00;99871.94;4427140;32;20182;-86
2024/04/09 08:47:59;;;;;;;0.40;0.28;;;;;;;17.74;100.00;99880.97;4429916;32;20241;-85
2024/04/09 08:50:25;;;;;;;0.10;0.10;;;;;;;17.70;100.00;99897.47;4424345;32;20188;-85
2024/04/09 08:52:53;;;;;;;0.20;0.20;;;;;;;17.62;100.00;99894.28;4426467;32;20162;-86
2024/04/09 08:55:20;;;;;;;1.27;0.45;;;;;;;17.57;100.00;99886.00;4429938;32;20169;-85
2024/04/09 08:57:45;;;;;;;0.20;0.20;;;;;;;17.55;100.00;99905.03;4421985;32;20267;-87
2024/04/09 09:00:16;;;;;;;0.20;0.20;;;;;;;17.55;100.00;99917.63;4424539;32;20226;-86
2024/04/09 09:02:42;;;;;;;0.68;0.20;;;;;;;17.42;100.00;99923.91;4426492;32;20196;-87
2024/04/09 09:05:16;;;;;;;0.00;0.00;;;;;;;17.36;100.00;99938.16;4427681;32;20152;-85
2024/04/09 09:07:42;;;;;;;0.17;0.17;;;;;;;17.24;100.00;99934.53;4421326;32;20153;-86
2024/04/09 09:10:09;;;;;;;0.10;0.10;;;;;;;17.11;100.00;99962.22;4426026;32;20169;-84
2024/04/09 09:12:35;;;;;;;1.02;0.30;;;;;;;16.82;100.00;99946.69;4422369;32;20276;-85
2024/04/09 09:15:01;;;;;;;0.13;0.13;;;;;;;16.76;100.00;99983.19;4419537;32;20213;-87
2024/04/09 09:17:29;;;;;;;0.10;0.10;;;;;;;16.51;100.00;99990.25;4425654;32;20187;-86
2024/04/09 09:19:58;;;;;;;0.20;0.20;;;;;;;15.86;100.00;99911.72;4425138;32;20222;-86
2024/04/09 09:22:28;;;;;;;3.25;0.40;;;;;;;16.34;100.00;100008.59;4424823;32;20214;-85
2024/04/09 09:24:57;;;;;;;0.95;0.40;;;;;;;16.21;100.00;100018.50;4411894;32;20663;-86
2024/04/09 09:27:23;;;;;;;0.20;0.20;;;;;;;16.20;100.00;100030.22;4413329;32;20683;-85
2024/04/09 09:29:53;;;;;;;2.12;0.20;;;;;;;16.12;100.00;100048.16;4425060;32;20169;-85
2024/04/09 09:32:21;;;;;;;0.30;0.15;;;;;;;16.05;100.00;100051.84;4411362;32;20195;-85
2024/04/09 09:34:48;;;;;;;0.85;0.30;;;;;;;15.95;100.00;100056.78;4426927;32;20160;-85
2024/04/09 09:37:14;;;;;;;0.15;0.15;;;;;;;15.90;100.00;100056.59;4424631;32;20200;-86
2024/04/09 09:39:41;;;;;;;0.50;0.50;;;;;;;15.85;100.00;100081.25;4425524;32;20235;-85
2024/04/09 09:42:10;;;;;;;0.50;0.20;;;;;;;15.55;100.00;100075.44;4422947;32;20160;-85
2024/04/09 09:44:37;;;;;;;0.17;0.17;;;;;;;15.45;100.00;100076.81;4421726;32;20196;-85
2024/04/09 09:47:04;;;;;;;0.15;0.15;;;;;;;15.42;100.00;100085.25;4423917;32;20175;-85
2024/04/09 09:49:30;;;;;;;0.20;0.20;;;;;;;15.44;100.00;100093.88;4422134;32;20168;-86
2024/04/09 09:51:57;;;;;;;1.55;0.50;;;;;;;15.48;100.00;100100.47;4421793;32;20180;-85
2024/04/09 09:54:23;;;;;;;0.30;0.30;;;;;;;15.42;100.00;100114.66;4412242;32;20503;-86
2024/04/09 09:56:52;;;;;;;1.37;0.10;;;;;;;15.36;100.00;100109.06;4420607;32;20231;-85
2024/04/09 09:59:19;;;;;;;0.45;0.45;;;;;;;15.32;100.00;100121.19;4425879;32;20164;-85
2024/04/09 10:01:48;;;;;;;0.30;0.20;;;;;;;15.28;100.00;100127.91;4408980;32;20176;-85
2024/04/09 10:04:15;;;;;;;0.10;0.10;;;;;;;15.38;100.00;100128.41;4420162;32;20554;-86
2024/04/09 10:06:41;;;;;;;0.98;0.20;;;;;;;15.31;100.00;100124.87;4426407;32;20156;-85
2024/04/09 10:09:07;;;;;;;0.10;0.10;;;;;;;15.23;100.00;100126.88;4427728;32;20264;-85
2024/04/09 10:11:42;;;;;;;0.10;0.10;;;;;;;15.20;100.00;100120.09;4426806;32;20160;-84
2024/04/09 10:14:08;;;;;;;1.02;0.35;;;;;;;15.29;100.00;100126.91;4411240;32;20184;-85
2024/04/09 10:16:35;;;;;;;0.57;0.20;;;;;;;15.44;100.00;100150.00;4424893;32;20601;-85
2024/04/09 10:19:01;;;;;;;0.85;0.20;;;;;;;15.27;100.00;100174.41;4424111;32;20153;-85
2024/04/09 10:21:28;;;;;;;1.30;0.43;;;;;;;15.26;100.00;100180.78;4431728;32;20178;-85
2024/04/09 10:23:58;;;;;;;0.25;0.25;;;;;;;15.27;100.00;100179.75;4423337;32;20173;-85
2024/04/09 10:26:25;;;;;;;1.80;0.15;;;;;;;15.18;100.00;100199.63;4419400;32;20231;-86
2024/04/09 10:29:01;;;;;;;0.20;0.20;;;;;;;15.20;100.00;100194.91;4426562;32;20230;-85
2024/04/09 10:31:29;;;;;;;0.85;0.25;;;;;;;15.00;100.00;100195.81;4427253;32;20270;-85
2024/04/09 10:33:57;;;;;;;0.10;0.10;;;;;;;15.09;100.00;100200.78;4418904;32;20188;-84
2024/04/09 10:36:23;;;;;;;1.52;0.35;;;;;;;15.09;100.00;100216.81;4419121;32;20164;-85
2024/04/09 10:38:50;;;;;;;2.05;0.57;;;;;;;14.93;100.00;100212.63;4424891;32;20457;-84
2024/04/09 10:41:16;;;;;;;0.40;0.40;;;;;;;14.93;100.00;100206.44;4424164;32;20200;-85
2024/04/09 10:43:42;;;;;;;0.57;0.50;;;;;;;14.84;100.00;100216.44;4424722;32;20164;-85
2024/04/09 10:46:09;;;;;;;0.75;0.32;;;;;;;14.72;100.00;100211.81;4418722;32;20187;-87
2024/04/09 10:48:39;;;;;;;0.85;0.62;;;;;;;14.77;100.00;100210.22;4407567;32;20252;-88
2024/04/09 10:51:07;;;;;;;0.62;0.62;;;;;;;14.85;100.00;100202.06;4410077;32;20173;-87
2024/04/09 10:53:35;;;;;;;1.48;0.62;;;;;;;14.81;100.00;100213.31;4426951;32;20185;-87
2024/04/09 10:56:02;;;;;;;0.45;0.45;;;;;;;14.75;100.00;100200.75;4428960;32;20152;-87
2024/04/09 10:58:28;;;;;;;0.62;0.62;;;;;;;14.75;100.00;100214.09;4424062;32;20488;-87
2024/04/09 11:00:54;;;;;;;0.43;0.43;;;;;;;14.61;100.00;100217.66;4419031;32;20199;-87
2024/04/09 11:03:20;;;;;;;0.30;0.30;;;;;;;14.57;100.00;100218.06;4410004;32;20259;-87
2024/04/09 11:05:50;;;;;;;1.00;0.70;;;;;;;14.51;100.00;100223.34;4411820;32;20253;-88
2024/04/09 11:08:23;;;;;;;0.40;0.40;;;;;;;14.35;100.00;100197.69;4424333;32;20199;-88
2024/04/09 11:10:49;;;;;;;0.47;0.47;;;;;;;14.58;100.00;100219.72;4412206;32;20287;-87
2024/04/09 11:13:15;;;;;;;2.37;0.52;;;;;;;14.59;100.00;100215.19;4418757;32;20165;-87
2024/04/09 11:15:43;;;;;;;0.73;0.50;;;;;;;14.67;100.00;100243.59;4419422;32;20649;-87
2024/04/09 11:18:13;;;;;;;0.90;0.90;;;;;;;14.57;100.00;100241.25;4422905;32;20169;-87
2024/04/09 11:20:39;;;;;;;0.43;0.43;;;;;;;14.34;100.00;100233.41;4419388;32;20224;-87
2024/04/09 11:23:08;;;;;;;0.65;0.50;;;;;;;14.42;100.00;100235.97;4415158;32;20226;-88
2024/04/09 11:25:36;;;;;;;1.70;0.60;;;;;;;14.19;100.00;100227.28;4418211;32;20164;-87
2024/04/09 11:28:03;;;;;;;0.40;0.40;;;;;;;14.31;100.00;100248.97;4425644;32;20574;-88